Time;durP1;ratioP1;P1;durP2;ratioP2;P2;SDS_P1;SDS_P2;PMS_P1;PMS_P2;Temp;Humidity;BMP_temperature;BMP_pressure;BME280_temperature;BME280_humidity;BME280_pressure;Samples;Min_cycle;Max_cycle;Signal;HPM_P1;HPM_P2
2023/09/08 00:00:46;;;;;;;;;;;;;;;23.59;40.51;99197.28;5031264;28;19935;-72
2023/09/08 00:03:11;;;;;;;;;;;;;;;23.52;40.56;99196.41;5032878;28;19913;-74
2023/09/08 00:05:36;;;;;;;;;;;;;;;23.52;41.18;99206.25;5032859;28;19920;-74
2023/09/08 00:08:02;;;;;;;;;;;;;;;23.48;40.93;99205.78;5014686;28;19999;-73
2023/09/08 00:10:27;;;;;;;;;;;;;;;23.42;40.75;99195.88;5031439;28;19913;-74
2023/09/08 00:12:52;;;;;;;;;;;;;;;23.39;41.03;99193.59;5032142;28;20230;-73
2023/09/08 00:15:18;;;;;;;;;;;;;;;23.35;41.52;99197.69;5031988;28;19924;-74
2023/09/08 00:17:43;;;;;;;;;;;;;;;23.32;41.02;99193.53;5031628;28;19913;-73
2023/09/08 00:20:08;;;;;;;;;;;;;;;23.30;41.25;99199.06;5031423;28;20362;-73
2023/09/08 00:22:34;;;;;;;;;;;;;;;23.28;41.48;99198.44;5032867;28;19971;-73
2023/09/08 00:24:59;;;;;;;;;;;;;;;23.28;41.76;99201.09;5031647;28;19913;-73
2023/09/08 00:27:25;;;;;;;;;;;;;;;23.28;41.68;99198.44;5032592;28;19971;-73
2023/09/08 00:29:52;;;;;;;;;;;;;;;23.25;41.30;99196.13;5031732;28;19913;-73
2023/09/08 00:32:18;;;;;;;;;;;;;;;23.27;41.78;99193.28;5032605;28;19920;-73
2023/09/08 00:34:43;;;;;;;;;;;;;;;23.22;41.59;99187.72;5030058;28;19917;-76
2023/09/08 00:37:09;;;;;;;;;;;;;;;23.23;41.92;99195.50;5030955;28;19921;-74
2023/09/08 00:39:38;;;;;;;;;;;;;;;23.23;41.94;99190.19;5030884;28;20343;-72
2023/09/08 00:42:03;;;;;;;;;;;;;;;23.23;42.15;99192.00;5031481;28;19935;-72
2023/09/08 00:44:28;;;;;;;;;;;;;;;23.23;42.42;99194.66;5033018;28;20355;-72
2023/09/08 00:46:54;;;;;;;;;;;;;;;23.23;42.60;99190.19;5031437;28;19967;-72
2023/09/08 00:49:19;;;;;;;;;;;;;;;23.17;42.84;99188.28;5031327;28;19920;-73
2023/09/08 00:51:59;;;;;;;;;;;;;;;23.14;42.81;99188.66;5031487;28;19920;-73
2023/09/08 00:54:25;;;;;;;;;;;;;;;23.11;43.19;99186.34;4976240;28;19941;-73
2023/09/08 00:56:53;;;;;;;;;;;;;;;23.09;43.60;99185.72;4958577;28;19914;-73
2023/09/08 00:59:18;;;;;;;;;;;;;;;23.07;43.80;99180.56;4975497;28;19913;-73
2023/09/08 01:01:43;;;;;;;;;;;;;;;23.03;43.50;99181.94;4991339;28;19935;-73
2023/09/08 01:04:09;;;;;;;;;;;;;;;22.97;43.12;99179.19;4974933;28;19913;-73
2023/09/08 01:06:34;;;;;;;;;;;;;;;22.90;43.16;99173.78;4991062;28;19914;-73
2023/09/08 01:08:59;;;;;;;;;;;;;;;22.83;43.34;99170.22;4990855;28;19988;-74
2023/09/08 01:11:24;;;;;;;;;;;;;;;22.80;43.26;99171.41;4974924;28;19996;-73
2023/09/08 01:13:50;;;;;;;;;;;;;;;22.79;43.30;99167.09;4978523;28;19917;-73
2023/09/08 01:16:15;;;;;;;;;;;;;;;22.78;42.97;99170.78;4978657;28;20436;-73
2023/09/08 01:18:40;;;;;;;;;;;;;;;22.77;42.58;99177.94;5010908;28;20297;-73
2023/09/08 01:21:12;;;;;;;;;;;;;;;22.75;42.46;99169.28;5035188;28;19967;-73
2023/09/08 01:23:46;;;;;;;;;;;;;;;22.75;42.60;99171.94;5036603;28;19971;-73
2023/09/08 01:26:13;;;;;;;;;;;;;;;22.74;42.49;99165.00;5036381;28;19917;-73
2023/09/08 01:28:39;;;;;;;;;;;;;;;22.74;42.69;99167.66;5018548;28;19962;-73
2023/09/08 01:31:04;;;;;;;;;;;;;;;22.75;42.20;99163.97;5018484;28;20350;-73
2023/09/08 01:33:30;;;;;;;;;;;;;;;22.75;42.42;99161.31;5036281;28;19913;-73
2023/09/08 01:35:55;;;;;;;;;;;;;;;22.75;42.24;99156.00;5034708;28;19921;-73
2023/09/08 01:38:24;;;;;;;;;;;;;;;22.79;42.26;99145.81;5035366;28;19913;-73
2023/09/08 01:40:49;;;;;;;;;;;;;;;22.84;41.37;99148.75;5034786;28;19913;-73
2023/09/08 01:43:17;;;;;;;;;;;;;;;22.89;41.22;99146.34;5018323;28;19920;-72
2023/09/08 01:45:42;;;;;;;;;;;;;;;22.91;41.01;99149.66;5034821;28;19920;-73
2023/09/08 01:48:10;;;;;;;;;;;;;;;22.92;41.13;99134.50;5034528;28;19913;-73
2023/09/08 01:50:35;;;;;;;;;;;;;;;22.94;41.55;99140.44;5034639;28;19913;-73
2023/09/08 01:53:00;;;;;;;;;;;;;;;22.94;41.22;99149.28;5034849;28;19913;-73
2023/09/08 01:55:26;;;;;;;;;;;;;;;22.92;41.43;99137.97;5034496;28;19913;-73
2023/09/08 01:57:51;;;;;;;;;;;;;;;22.92;41.36;99147.81;5036127;28;19913;-73
2023/09/08 02:00:16;;;;;;;;;;;;;;;22.93;41.42;99150.28;5034602;28;19920;-72
2023/09/08 02:02:41;;;;;;;;;;;;;;;22.94;41.04;99149.28;5035769;28;19921;-72
2023/09/08 02:05:07;;;;;;;;;;;;;;;22.93;40.71;99155.59;5017822;28;19917;-72
2023/09/08 02:07:33;;;;;;;;;;;;;;;22.95;40.56;99156.25;5017996;28;19915;-73
2023/09/08 02:09:58;;;;;;;;;;;;;;;22.96;40.62;99154.38;5034378;28;20016;-73
2023/09/08 02:12:23;;;;;;;;;;;;;;;22.98;40.52;99156.88;5017785;28;20292;-73
2023/09/08 02:14:49;;;;;;;;;;;;;;;22.94;40.62;99156.41;5034196;28;19920;-73
2023/09/08 02:17:14;;;;;;;;;;;;;;;22.91;40.79;99151.47;5034029;28;20364;-72
2023/09/08 02:19:39;;;;;;;;;;;;;;;22.93;40.67;99154.78;5034072;28;19912;-73
2023/09/08 02:22:04;;;;;;;;;;;;;;;22.90;40.76;99160.50;5035144;28;19970;-73
2023/09/08 02:24:30;;;;;;;;;;;;;;;22.88;40.95;99163.34;5033256;28;19920;-70
2023/09/08 02:26:55;;;;;;;;;;;;;;;22.86;40.98;99154.69;5035241;28;20388;-73
2023/09/08 02:29:20;;;;;;;;;;;;;;;22.83;41.14;99149.75;5034194;28;20374;-73
2023/09/08 02:31:46;;;;;;;;;;;;;;;22.83;40.78;99149.75;5035047;28;20333;-73
2023/09/08 02:34:12;;;;;;;;;;;;;;;22.87;41.17;99147.56;5035125;28;20287;-73
2023/09/08 02:36:37;;;;;;;;;;;;;;;22.87;40.78;99142.22;5017254;28;19921;-73
2023/09/08 02:39:03;;;;;;;;;;;;;;;22.82;40.99;99136.63;5017504;28;19983;-73
2023/09/08 02:41:28;;;;;;;;;;;;;;;22.85;40.62;99146.88;5031911;28;19917;-73
2023/09/08 02:43:53;;;;;;;;;;;;;;;22.84;40.72;99138.09;4981409;28;19971;-72
2023/09/08 02:46:19;;;;;;;;;;;;;;;22.85;40.48;99137.09;5015224;28;19914;-73
2023/09/08 02:48:44;;;;;;;;;;;;;;;22.89;40.66;99138.34;5015055;28;20024;-73
2023/09/08 02:51:09;;;;;;;;;;;;;;;22.89;40.56;99137.53;5014863;28;20395;-73
2023/09/08 02:53:35;;;;;;;;;;;;;;;22.88;40.63;99139.38;5013702;28;19914;-74
2023/09/08 02:56:00;;;;;;;;;;;;;;;22.88;40.10;99139.38;5013840;28;19921;-74
2023/09/08 02:58:26;;;;;;;;;;;;;;;22.84;40.86;99143.41;4997218;28;19917;-75
2023/09/08 03:00:54;;;;;;;;;;;;;;;22.87;40.70;99139.56;5014873;28;19970;-73
2023/09/08 03:03:19;;;;;;;;;;;;;;;22.88;40.53;99133.22;4981338;28;19917;-73
2023/09/08 03:05:44;;;;;;;;;;;;;;;22.89;40.36;99130.38;5013248;28;20332;-73
2023/09/08 03:08:10;;;;;;;;;;;;;;;22.90;40.58;99128.53;5013768;28;19972;-73
2023/09/08 03:10:35;;;;;;;;;;;;;;;22.89;40.27;99133.03;4997007;28;19913;-73
2023/09/08 03:13:01;;;;;;;;;;;;;;;22.92;40.31;99129.19;4997051;28;19913;-73
2023/09/08 03:15:28;;;;;;;;;;;;;;;22.94;40.04;99130.66;5013380;28;20377;-74
2023/09/08 03:17:58;;;;;;;;;;;;;;;22.95;40.50;99128.81;5012958;28;20347;-74
2023/09/08 03:20:23;;;;;;;;;;;;;;;22.96;40.42;99122.44;4996138;28;19928;-74
2023/09/08 03:22:48;;;;;;;;;;;;;;;22.95;40.43;99126.13;5013425;28;19917;-73
2023/09/08 03:25:14;;;;;;;;;;;;;;;22.94;40.50;99124.47;4980614;28;19917;-73
2023/09/08 03:27:40;;;;;;;;;;;;;;;22.92;40.39;99132.66;5013575;28;19920;-73
2023/09/08 03:30:05;;;;;;;;;;;;;;;22.91;40.24;99128.34;4996811;28;19913;-74
2023/09/08 03:32:31;;;;;;;;;;;;;;;22.91;40.18;99133.69;5013088;28;19952;-73
2023/09/08 03:34:56;;;;;;;;;;;;;;;22.91;40.30;99135.50;5012411;28;19971;-74
2023/09/08 03:37:22;;;;;;;;;;;;;;;22.93;40.61;99133.50;4996279;28;19917;-70
2023/09/08 03:39:47;;;;;;;;;;;;;;;22.99;41.96;99135.38;5014134;28;19921;-71
2023/09/08 03:42:12;;;;;;;;;;;;;;;23.05;43.92;99139.97;5013162;28;19971;-70
2023/09/08 03:44:38;;;;;;;;;;;;;;;23.29;45.00;99130.84;5013987;28;19913;-70
2023/09/08 03:47:03;;;;;;;;;;;;;;;23.46;41.76;99142.03;5014111;28;20465;-70
2023/09/08 03:49:28;;;;;;;;;;;;;;;23.43;42.24;99138.94;4981136;28;19943;-72
2023/09/08 03:51:54;;;;;;;;;;;;;;;23.59;43.04;99136.00;5014427;28;19913;-78
2023/09/08 03:54:20;;;;;;;;;;;;;;;23.71;41.27;99143.50;4997428;28;20008;-76
2023/09/08 03:56:46;;;;;;;;;;;;;;;23.71;41.15;99146.19;5013356;28;20385;-76
2023/09/08 03:59:11;;;;;;;;;;;;;;;23.76;41.15;99141.09;4996396;28;19920;-74
2023/09/08 04:01:37;;;;;;;;;;;;;;;23.81;39.93;99143.97;5015578;28;19977;-77
2023/09/08 04:04:03;;;;;;;;;;;;;;;23.88;40.59;99142.25;5013420;28;19913;-78
2023/09/08 04:06:28;;;;;;;;;;;;;;;24.46;40.06;99138.50;5013163;28;19917;-77
2023/09/08 04:08:53;;;;;;;;;;;;;;;25.14;38.98;99137.75;5013989;28;19913;-74
2023/09/08 04:11:19;;;;;;;;;;;;;;;25.74;37.87;99148.53;4996282;28;19917;-74
2023/09/08 04:13:44;;;;;;;;;;;;;;;26.34;36.25;99143.97;4996242;28;19914;-76
2023/09/08 04:16:10;;;;;;;;;;;;;;;26.93;33.85;99148.53;4993553;28;19920;-76
2023/09/08 04:18:35;;;;;;;;;;;;;;;27.50;34.17;99149.47;5011960;28;19913;-71
2023/09/08 04:21:00;;;;;;;;;;;;;;;28.09;32.01;99147.34;5013528;28;19971;-71
2023/09/08 04:23:26;;;;;;;;;;;;;;;28.74;30.96;99156.78;5012549;28;20404;-72
2023/09/08 04:25:51;;;;;;;;;;;;;;;29.38;30.22;99153.66;5012090;28;19921;-78
2023/09/08 04:28:16;;;;;;;;;;;;;;;30.21;29.83;99159.19;5013541;28;19913;-76
2023/09/08 04:30:42;;;;;;;;;;;;;;;31.00;28.73;99150.59;5015236;28;19917;-76
2023/09/08 04:33:07;;;;;;;;;;;;;;;31.77;28.56;99157.34;5012278;28;19913;-77
2023/09/08 04:35:32;;;;;;;;;;;;;;;32.45;27.80;99155.38;5013548;28;20351;-77
2023/09/08 04:37:57;;;;;;;;;;;;;;;33.02;26.45;99161.47;5012154;28;19918;-76
2023/09/08 04:40:23;;;;;;;;;;;;;;;33.59;25.21;99157.44;5013558;28;20003;-77
2023/09/08 04:42:48;;;;;;;;;;;;;;;34.15;24.26;99167.06;5012311;28;19924;-78
2023/09/08 04:45:13;;;;;;;;;;;;;;;34.63;23.86;99167.03;4995801;28;20335;-77
2023/09/08 04:47:39;;;;;;;;;;;;;;;35.20;23.24;99171.56;5013260;28;19917;-77
2023/09/08 04:50:07;;;;;;;;;;;;;;;35.61;22.33;99160.75;5013417;28;20295;-78
2023/09/08 04:52:33;;;;;;;;;;;;;;;36.17;21.81;99170.78;4996135;28;19914;-80
2023/09/08 04:54:58;;;;;;;;;;;;;;;36.51;21.44;99174.75;5013029;28;19918;-79
2023/09/08 04:57:23;;;;;;;;;;;;;;;36.93;21.00;99177.03;5012444;28;19913;-78
2023/09/08 04:59:49;;;;;;;;;;;;;;;37.26;21.15;99177.41;5012026;28;19967;-76
2023/09/08 05:02:14;;;;;;;;;;;;;;;37.54;20.43;99171.47;5011745;28;19948;-81
2023/09/08 05:04:40;;;;;;;;;;;;;;;37.87;19.45;99171.78;5012671;28;20411;-75
2023/09/08 05:07:05;;;;;;;;;;;;;;;38.09;19.28;99174.00;5011673;28;19917;-75
2023/09/08 05:09:33;;;;;;;;;;;;;;;38.38;19.15;99171.25;4995532;28;19944;-76
2023/09/08 05:11:59;;;;;;;;;;;;;;;38.62;18.83;99174.00;5012720;28;19914;-78
2023/09/08 05:14:25;;;;;;;;;;;;;;;38.86;18.31;99179.41;5012578;28;19964;-78
2023/09/08 05:16:55;;;;;;;;;;;;;;;39.13;18.40;99177.97;5012169;28;19993;-75
2023/09/08 05:19:20;;;;;;;;;;;;;;;39.38;17.97;99184.16;5011306;28;19959;-75
2023/09/08 05:21:46;;;;;;;;;;;;;;;39.59;17.76;99177.25;5010185;28;20005;-74
2023/09/08 05:24:11;;;;;;;;;;;;;;;39.77;17.56;99183.78;5011991;28;19984;-76
2023/09/08 05:26:37;;;;;;;;;;;;;;;39.97;17.53;99181.81;5011650;28;19921;-75
2023/09/08 05:29:02;;;;;;;;;;;;;;;40.15;17.48;99180.09;4995205;28;19920;-75
2023/09/08 05:31:27;;;;;;;;;;;;;;;40.32;17.01;99188.50;4995147;28;19913;-76
2023/09/08 05:33:53;;;;;;;;;;;;;;;40.46;16.77;99187.75;5013256;28;20293;-74
2023/09/08 05:36:18;;;;;;;;;;;;;;;40.59;16.94;99188.84;4994885;28;20312;-76
2023/09/08 05:38:44;;;;;;;;;;;;;;;40.76;16.48;99188.22;4995016;28;19936;-76
2023/09/08 05:41:09;;;;;;;;;;;;;;;40.87;16.37;99192.38;5011721;28;20395;-74
2023/09/08 05:43:34;;;;;;;;;;;;;;;40.99;16.44;99195.41;4994794;28;19925;-76
2023/09/08 05:45:59;;;;;;;;;;;;;;;41.07;16.72;99188.38;4994419;28;20372;-75
2023/09/08 05:48:25;;;;;;;;;;;;;;;41.18;16.14;99197.97;5011065;28;19917;-75
2023/09/08 05:50:50;;;;;;;;;;;;;;;41.25;16.59;99194.78;5011575;28;19917;-75
2023/09/08 05:53:16;;;;;;;;;;;;;;;41.31;16.01;99198.25;4994926;28;20440;-73
2023/09/08 05:55:41;;;;;;;;;;;;;;;41.27;16.71;99195.28;4995516;28;19913;-75
2023/09/08 05:58:07;;;;;;;;;;;;;;;41.12;17.33;99195.63;5011311;28;20361;-73
2023/09/08 06:00:32;;;;;;;;;;;;;;;41.19;17.19;99193.28;4997961;28;20369;-72
2023/09/08 06:02:58;;;;;;;;;;;;;;;41.32;16.91;99195.19;5014618;28;20443;-73
2023/09/08 06:05:24;;;;;;;;;;;;;;;41.44;16.48;99197.38;5014715;28;19913;-73
2023/09/08 06:07:49;;;;;;;;;;;;;;;41.56;16.39;99181.19;4998276;28;19983;-74
2023/09/08 06:10:14;;;;;;;;;;;;;;;41.58;16.37;99187.16;5014339;28;19921;-73
2023/09/08 06:12:40;;;;;;;;;;;;;;;41.53;16.44;99183.72;5015783;28;20005;-74
2023/09/08 06:15:05;;;;;;;;;;;;;;;41.50;16.09;99190.66;5014550;28;20380;-74
2023/09/08 06:17:31;;;;;;;;;;;;;;;41.61;16.17;99180.25;5015957;28;19920;-72
2023/09/08 06:19:56;;;;;;;;;;;;;;;41.69;16.14;99178.69;4998226;28;19987;-73
2023/09/08 06:22:21;;;;;;;;;;;;;;;41.74;16.42;99184.06;4998038;28;20307;-74
2023/09/08 06:24:47;;;;;;;;;;;;;;;41.72;16.05;99178.91;5014834;28;20347;-74
2023/09/08 06:27:13;;;;;;;;;;;;;;;41.68;16.03;99180.59;5015358;28;20016;-74
2023/09/08 06:29:39;;;;;;;;;;;;;;;41.60;16.06;99181.38;5014250;28;20008;-74
2023/09/08 06:32:05;;;;;;;;;;;;;;;41.54;16.78;99188.09;5016013;28;20004;-73
2023/09/08 06:34:30;;;;;;;;;;;;;;;41.48;17.47;99186.59;5014533;28;19913;-73
2023/09/08 06:36:56;;;;;;;;;;;;;;;41.46;16.90;99186.91;4997757;28;20380;-74
2023/09/08 06:39:21;;;;;;;;;;;;;;;41.48;16.75;99195.66;4997609;28;19921;-73
2023/09/08 06:41:46;;;;;;;;;;;;;;;41.51;16.00;99196.94;5014094;28;19971;-73
2023/09/08 06:44:11;;;;;;;;;;;;;;;41.40;16.21;99205.41;5013951;28;19936;-73
2023/09/08 06:46:37;;;;;;;;;;;;;;;41.39;15.81;99205.72;5013830;28;19914;-73
2023/09/08 06:49:02;;;;;;;;;;;;;;;41.33;15.71;99212.44;4997457;28;19920;-75
2023/09/08 06:51:27;;;;;;;;;;;;;;;41.25;15.52;99200.28;4997506;28;19914;-76
2023/09/08 06:54:00;;;;;;;;;;;;;;;41.18;15.74;99208.09;5015043;28;19913;-75
2023/09/08 06:56:25;;;;;;;;;;;;;;;41.26;15.14;99210.13;5014197;28;19917;-74
2023/09/08 06:58:50;;;;;;;;;;;;;;;41.33;15.56;99212.44;5014884;28;19985;-73
2023/09/08 07:01:15;;;;;;;;;;;;;;;41.39;14.94;99205.72;4997430;28;20004;-75
2023/09/08 07:03:41;;;;;;;;;;;;;;;41.40;15.25;99207.34;4997501;28;19917;-74
2023/09/08 07:06:06;;;;;;;;;;;;;;;41.43;15.08;99212.19;5015038;28;20296;-74
2023/09/08 07:08:31;;;;;;;;;;;;;;;41.45;15.51;99204.50;4996860;28;19913;-74
2023/09/08 07:10:57;;;;;;;;;;;;;;;41.49;15.06;99204.66;4997103;28;19913;-74
2023/09/08 07:13:22;;;;;;;;;;;;;;;41.49;14.89;99210.94;5013738;28;19913;-75
2023/09/08 07:15:47;;;;;;;;;;;;;;;41.48;15.32;99205.78;4997267;28;19913;-74
2023/09/08 07:18:13;;;;;;;;;;;;;;;41.44;15.53;99216.56;5013395;28;19919;-73
2023/09/08 07:20:38;;;;;;;;;;;;;;;41.38;15.48;99210.38;4997081;28;19918;-74
2023/09/08 07:23:03;;;;;;;;;;;;;;;41.39;15.13;99211.22;5013661;28;19919;-75
2023/09/08 07:25:29;;;;;;;;;;;;;;;41.38;15.13;99207.66;5013652;28;19917;-78
2023/09/08 07:27:54;;;;;;;;;;;;;;;41.46;15.07;99208.81;5013889;28;20345;-76
2023/09/08 07:30:20;;;;;;;;;;;;;;;41.53;14.93;99208.38;5012877;28;19913;-75
2023/09/08 07:32:45;;;;;;;;;;;;;;;41.56;14.85;99207.75;5015104;28;19963;-78
2023/09/08 07:35:14;;;;;;;;;;;;;;;41.46;15.11;99206.09;5013476;28;19940;-78
2023/09/08 07:37:39;;;;;;;;;;;;;;;41.47;15.07;99201.44;4997211;28;20412;-75
2023/09/08 07:40:05;;;;;;;;;;;;;;;41.50;15.09;99200.81;5012860;28;20004;-76
2023/09/08 07:42:30;;;;;;;;;;;;;;;41.52;15.49;99202.09;5014351;28;20289;-77
2023/09/08 07:44:56;;;;;;;;;;;;;;;41.49;15.37;99199.19;4996986;28;19921;-76
2023/09/08 07:47:21;;;;;;;;;;;;;;;41.47;15.23;99199.50;5012881;28;19913;-76
2023/09/08 07:49:47;;;;;;;;;;;;;;;41.36;15.30;99211.84;5014819;28;19920;-76
2023/09/08 07:52:15;;;;;;;;;;;;;;;41.39;14.60;99203.78;5013219;28;19920;-76
2023/09/08 07:54:40;;;;;;;;;;;;;;;41.54;14.60;99210.00;5012878;28;20007;-76
2023/09/08 07:57:05;;;;;;;;;;;;;;;41.63;14.93;99215.56;5012984;28;20014;-75
2023/09/08 07:59:31;;;;;;;;;;;;;;;40.81;15.05;99212.72;4996837;28;19919;-77
2023/09/08 08:01:56;;;;;;;;;;;;;;;40.59;15.18;99206.06;5012763;28;19914;-77
2023/09/08 08:04:21;;;;;;;;;;;;;;;40.84;15.08;99199.22;5012860;28;19971;-77
2023/09/08 08:06:48;;;;;;;;;;;;;;;41.03;15.00;99201.06;4996496;28;19987;-77
2023/09/08 08:09:13;;;;;;;;;;;;;;;40.77;15.18;99192.56;4996617;28;19933;-78
2023/09/08 08:11:38;;;;;;;;;;;;;;;40.71;15.02;99202.81;4996344;28;20411;-76
2023/09/08 08:14:03;;;;;;;;;;;;;;;40.29;15.60;99196.53;5013272;28;20372;-75
2023/09/08 08:16:29;;;;;;;;;;;;;;;40.70;15.00;99195.72;5012878;28;19923;-77
2023/09/08 08:18:54;;;;;;;;;;;;;;;40.85;14.96;99184.47;5012763;28;20384;-77
2023/09/08 08:21:20;;;;;;;;;;;;;;;40.87;15.09;99186.91;5012316;28;19913;-76
2023/09/08 08:23:45;;;;;;;;;;;;;;;40.95;14.70;99193.59;5012420;28;19971;-75
2023/09/08 08:26:11;;;;;;;;;;;;;;;40.28;15.63;99198.47;5013796;28;20352;-81
2023/09/08 08:28:36;;;;;;;;;;;;;;;40.73;15.31;99191.56;4995883;28;19914;-77
2023/09/08 08:31:01;;;;;;;;;;;;;;;40.90;15.17;99189.03;4996162;28;19941;-75
2023/09/08 08:33:27;;;;;;;;;;;;;;;40.21;16.29;99187.09;5013617;28;19914;-77
2023/09/08 08:35:52;;;;;;;;;;;;;;;40.66;15.38;99194.69;5012203;28;19928;-76
2023/09/08 08:38:18;;;;;;;;;;;;;;;40.86;15.18;99190.75;5012507;28;19920;-75
2023/09/08 08:40:43;;;;;;;;;;;;;;;41.18;15.28;99186.19;5012361;28;19968;-76
2023/09/08 08:43:08;;;;;;;;;;;;;;;41.36;14.96;99181.69;4995800;28;19925;-76
2023/09/08 08:45:34;;;;;;;;;;;;;;;41.61;15.07;99179.44;5014056;28;19913;-78
2023/09/08 08:48:02;;;;;;;;;;;;;;;41.71;14.61;99173.72;4995927;28;20393;-77
2023/09/08 08:50:27;;;;;;;;;;;;;;;41.83;14.61;99162.16;5012226;28;19939;-76
2023/09/08 08:52:52;;;;;;;;;;;;;;;41.82;14.52;99185.25;5012456;28;20396;-78
2023/09/08 08:55:18;;;;;;;;;;;;;;;41.91;13.87;99175.94;5012287;28;19914;-77
2023/09/08 08:57:43;;;;;;;;;;;;;;;41.79;14.05;99172.97;5013497;28;19920;-77
2023/09/08 09:00:11;;;;;;;;;;;;;;;41.53;14.72;99179.06;5013697;28;19941;-78
2023/09/08 09:02:38;;;;;;;;;;;;;;;41.78;14.51;99165.84;5012289;28;19982;-77
2023/09/08 09:05:03;;;;;;;;;;;;;;;41.36;14.92;99181.69;5023706;28;19971;-77
2023/09/08 09:07:29;;;;;;;;;;;;;;;41.58;14.71;99170.72;5031263;28;20376;-76
2023/09/08 09:09:54;;;;;;;;;;;;;;;41.31;15.89;99171.69;5016252;28;19971;-75
2023/09/08 09:12:22;;;;;;;;;;;;;;;41.30;17.12;99169.25;5035835;28;20006;-89
2023/09/08 09:14:47;;;;;;;;;;;;;;;41.22;19.68;99170.78;5003532;28;20374;-85
2023/09/08 09:17:15;;;;;;;;;;;;;;;40.65;18.72;99176.69;5036475;28;19913;-82
2023/09/08 09:19:41;;;;;;;;;;;;;;;39.79;18.41;99172.56;5034413;28;19913;-75
2023/09/08 09:22:06;;;;;;;;;;;;;;;39.30;18.19;99176.59;5015210;28;19913;-76
2023/09/08 09:24:38;;;;;;;;;;;;;;;39.10;18.00;99166.81;5030912;28;19913;-75
2023/09/08 09:27:06;;;;;;;;;;;;;;;39.32;17.34;99175.22;5030715;28;20377;-75
2023/09/08 09:29:32;;;;;;;;;;;;;;;39.44;16.94;99175.56;5032284;28;19913;-75
2023/09/08 09:31:59;;;;;;;;;;;;;;;39.60;16.81;99169.88;4998109;28;19913;-76
2023/09/08 09:34:25;;;;;;;;;;;;;;;39.41;16.99;99173.44;5032472;28;19994;-75
2023/09/08 09:36:50;;;;;;;;;;;;;;;38.83;17.25;99169.06;5033909;28;20385;-75
2023/09/08 09:39:30;;;;;;;;;;;;;;;38.83;17.33;99166.34;5035386;28;19971;-78
2023/09/08 09:41:59;;;;;;;;;;;;;;;38.30;17.87;99167.25;5018975;28;19975;-76
2023/09/08 09:44:24;;;;;;;;;;;;;;;38.38;18.20;99165.78;5018827;28;20368;-78
2023/09/08 09:47:02;;;;;;;;;;;;;;;38.55;18.20;99168.03;5018415;28;19920;-78
2023/09/08 09:49:36;;;;;;;;;;;;;;;38.42;17.86;99166.03;5034499;28;19913;-80
2023/09/08 09:52:23;;;;;;;;;;;;;;;37.92;17.66;99147.19;5034586;28;19936;-77
2023/09/08 09:54:50;;;;;;;;;;;;;;;37.56;18.37;99159.22;5034968;28;19917;-78
2023/09/08 09:57:27;;;;;;;;;;;;;;;37.89;17.59;99145.03;5018815;28;19913;-78
2023/09/08 10:00:05;;;;;;;;;;;;;;;37.83;17.89;99149.75;5035154;28;19913;-78
2023/09/08 10:02:33;;;;;;;;;;;;;;;37.52;18.33;99150.00;5036365;28;20405;-78
2023/09/08 10:05:39;;;;;;;;;;;;;;;37.20;18.39;99161.38;5034870;28;20294;-80
2023/09/08 10:08:05;;;;;;;;;;;;;;;36.95;18.79;99146.84;5018522;28;20316;-79
2023/09/08 10:10:34;;;;;;;;;;;;;;;36.97;19.05;99141.91;4997607;28;19913;-77
2023/09/08 10:13:08;;;;;;;;;;;;;;;37.11;18.81;99142.91;5014401;28;19917;-77
2023/09/08 10:15:37;;;;;;;;;;;;;;;37.23;18.80;99139.06;5014476;28;19944;-79
2023/09/08 10:18:05;;;;;;;;;;;;;;;37.33;19.13;99138.19;5013653;28;20336;-77
2023/09/08 10:20:32;;;;;;;;;;;;;;;37.41;18.86;99138.38;5014176;28;19925;-78
2023/09/08 10:23:09;;;;;;;;;;;;;;;37.51;19.12;99128.50;5013915;28;20331;-77
2023/09/08 10:25:35;;;;;;;;;;;;;;;37.58;19.07;99123.53;5013621;28;20372;-78
2023/09/08 10:28:00;;;;;;;;;;;;;;;37.70;18.32;99125.91;5013579;28;19995;-79
2023/09/08 10:30:26;;;;;;;;;;;;;;;37.72;18.42;99131.84;5013497;28;19972;-78
2023/09/08 10:32:51;;;;;;;;;;;;;;;37.70;17.60;99129.44;5013345;28;19920;-79
2023/09/08 10:35:19;;;;;;;;;;;;;;;37.45;17.77;99128.53;5013362;28;19925;-78
2023/09/08 10:37:44;;;;;;;;;;;;;;;37.41;18.15;99119.31;5013486;28;19925;-77
2023/09/08 10:40:22;;;;;;;;;;;;;;;37.24;18.00;99127.06;5013517;28;20304;-79
2023/09/08 10:42:47;;;;;;;;;;;;;;;37.11;17.91;99126.59;5034422;28;19996;-78
2023/09/08 10:45:16;;;;;;;;;;;;;;;37.07;18.29;99119.28;5035224;28;19952;-78
2023/09/08 10:47:41;;;;;;;;;;;;;;;36.86;18.87;99116.72;5034223;28;19912;-77
2023/09/08 10:50:08;;;;;;;;;;;;;;;36.70;19.08;99120.56;5035322;28;19967;-78
2023/09/08 10:52:35;;;;;;;;;;;;;;;36.51;19.42;99112.25;5017825;28;20367;-78
2023/09/08 10:55:01;;;;;;;;;;;;;;;36.37;20.03;99112.84;5034174;28;19960;-78
2023/09/08 10:57:26;;;;;;;;;;;;;;;36.20;20.09;99105.00;5035189;28;19920;-77
2023/09/08 10:59:57;;;;;;;;;;;;;;;36.10;20.22;99107.75;5033746;28;19913;-78
2023/09/08 11:02:33;;;;;;;;;;;;;;;36.01;20.35;99109.44;5035592;28;20007;-77
2023/09/08 11:04:58;;;;;;;;;;;;;;;35.90;20.66;99103.19;5017256;28;20373;-78
2023/09/08 11:07:24;;;;;;;;;;;;;;;35.84;21.06;99096.94;5034307;28;19913;-80
2023/09/08 11:09:49;;;;;;;;;;;;;;;35.88;21.11;99088.25;5033203;28;19917;-80
2023/09/08 11:12:15;;;;;;;;;;;;;;;35.81;21.09;99089.34;5033638;28;19913;-78
2023/09/08 11:14:41;;;;;;;;;;;;;;;35.70;21.19;99087.72;5000825;28;20031;-80
2023/09/08 11:17:06;;;;;;;;;;;;;;;35.53;21.49;99082.59;5017289;28;19999;-79
2023/09/08 11:29:08;;;;;;;;;;;;;;;34.88;21.03;99066.81;5034617;28;19919;-79
2023/09/08 11:31:34;;;;;;;;;;;;;;;34.69;21.08;99066.47;5033566;28;19913;-83
2023/09/08 11:33:59;;;;;;;;;;;;;;;34.57;21.15;99061.31;5016456;28;19917;-78
2023/09/08 11:36:25;;;;;;;;;;;;;;;34.46;20.78;99056.97;5033605;28;19974;-78
2023/09/08 11:38:50;;;;;;;;;;;;;;;34.39;20.44;99059.88;5033241;28;19913;-82
2023/09/08 11:41:16;;;;;;;;;;;;;;;34.32;20.63;99053.13;5016565;28;19952;-78
2023/09/08 11:43:41;;;;;;;;;;;;;;;34.27;20.48;99045.78;5033096;28;20321;-81
2023/09/08 11:46:07;;;;;;;;;;;;;;;34.23;21.14;99041.97;5016480;28;19913;-79
2023/09/08 11:48:32;;;;;;;;;;;;;;;34.22;20.94;99032.16;5016183;28;20414;-80
2023/09/08 11:50:58;;;;;;;;;;;;;;;34.22;20.65;99024.88;5032275;28;19913;-79
2023/09/08 11:53:24;;;;;;;;;;;;;;;34.27;20.59;99024.13;5034481;28;19913;-79
2023/09/08 11:55:49;;;;;;;;;;;;;;;34.30;20.87;99012.75;5033922;28;20016;-80
2023/09/08 11:58:14;;;;;;;;;;;;;;;34.27;20.42;99040.38;5032175;28;20032;-79
2023/09/08 12:00:40;;;;;;;;;;;;;;;34.15;20.99;99031.63;5033790;28;19913;-80
2023/09/08 12:03:12;;;;;;;;;;;;;;;34.03;21.05;99040.78;5032614;28;20380;-79
2023/09/08 12:05:38;;;;;;;;;;;;;;;33.91;20.61;99026.63;5034116;28;19913;-79
2023/09/08 12:08:04;;;;;;;;;;;;;;;33.79;20.99;99028.75;5016853;28;19920;-78
2023/09/08 12:10:30;;;;;;;;;;;;;;;33.70;20.83;99033.81;5032918;28;19917;-80
2023/09/08 12:12:59;;;;;;;;;;;;;;;33.59;21.02;99023.97;5032838;28;20388;-78
2023/09/08 12:15:34;;;;;;;;;;;;;;;33.52;20.70;99024.22;5035097;28;19939;-78
2023/09/08 12:18:00;;;;;;;;;;;;;;;33.43;21.33;99021.22;5017492;28;19996;-78
2023/09/08 12:20:25;;;;;;;;;;;;;;;33.38;21.43;99018.44;5033062;28;19920;-80
2023/09/08 12:22:51;;;;;;;;;;;;;;;33.43;21.51;99013.09;5015773;28;19913;-78
2023/09/08 12:25:16;;;;;;;;;;;;;;;33.46;21.61;99000.91;5032264;28;19919;-78
2023/09/08 12:27:42;;;;;;;;;;;;;;;33.41;21.67;99009.00;5033794;28;20288;-80
2023/09/08 12:30:08;;;;;;;;;;;;;;;33.21;22.08;99013.22;5032280;28;19913;-80
2023/09/08 12:32:34;;;;;;;;;;;;;;;33.15;22.07;99012.31;5032851;28;19955;-80
2023/09/08 12:35:01;;;;;;;;;;;;;;;33.10;21.84;99016.84;5015420;28;20364;-80
2023/09/08 12:37:27;;;;;;;;;;;;;;;33.03;22.05;99017.06;5016040;28;19967;-78
2023/09/08 12:39:52;;;;;;;;;;;;;;;32.97;22.15;99018.09;5032127;28;19920;-78
2023/09/08 12:42:18;;;;;;;;;;;;;;;32.88;22.49;99012.38;5033682;28;20277;-78
2023/09/08 12:44:43;;;;;;;;;;;;;;;32.80;22.45;99013.66;5015512;28;20354;-79
2023/09/08 12:47:09;;;;;;;;;;;;;;;32.66;22.84;99019.69;5032301;28;19960;-78
2023/09/08 12:49:34;;;;;;;;;;;;;;;32.56;23.12;99020.38;5033495;28;19924;-80
2023/09/08 12:52:00;;;;;;;;;;;;;;;32.47;23.15;99017.34;5033110;28;19913;-79